createdAt,value
2023-05-14T00:01:09.990Z,9.51
2023-05-14T00:03:37.624Z,9.56
2023-05-14T00:06:04.519Z,9.55
2023-05-14T00:08:31.116Z,9.58
2023-05-14T00:10:57.788Z,9.63
2023-05-14T00:13:25.781Z,9.66
2023-05-14T00:15:52.464Z,9.66
2023-05-14T00:18:19.120Z,9.51
2023-05-14T00:20:45.856Z,9.51
2023-05-14T00:23:12.793Z,9.47
2023-05-14T00:25:42.666Z,9.49
2023-05-14T00:28:11.735Z,9.51
2023-05-14T00:30:39.799Z,9.46
2023-05-14T00:33:07.474Z,9.41
2023-05-14T00:35:40.437Z,9.44
2023-05-14T00:38:07.410Z,9.42
2023-05-14T00:40:34.275Z,9.41
2023-05-14T00:43:00.931Z,9.44
2023-05-14T00:45:27.982Z,9.42
2023-05-14T00:47:54.927Z,9.48
2023-05-14T00:50:21.980Z,9.48
2023-05-14T00:52:48.861Z,9.46
2023-05-14T00:55:17.256Z,9.51
2023-05-14T00:57:44.348Z,9.50
2023-05-14T01:00:11.365Z,9.45
2023-05-14T01:02:38.100Z,9.49
2023-05-14T01:05:05.244Z,9.57
2023-05-14T01:08:17.990Z,9.49
2023-05-14T01:11:00.642Z,9.52
2023-05-14T01:13:34.061Z,9.54
2023-05-14T01:16:01.472Z,9.41
2023-05-14T01:18:28.309Z,9.50
2023-05-14T01:20:54.982Z,9.51
2023-05-14T01:23:21.596Z,9.50
2023-05-14T01:25:48.215Z,9.49
2023-05-14T01:28:28.767Z,9.47
2023-05-14T01:31:11.183Z,9.55
2023-05-14T01:33:40.241Z,9.51
2023-05-14T01:36:07.062Z,9.43
2023-05-14T01:38:34.558Z,9.45
2023-05-14T01:41:01.648Z,9.39
2023-05-14T01:43:28.682Z,9.39
2023-05-14T01:45:55.656Z,9.33
2023-05-14T01:48:22.514Z,9.27
2023-05-14T01:50:49.216Z,9.22
2023-05-14T01:53:15.864Z,9.28
2023-05-14T01:55:42.499Z,9.37
2023-05-14T01:58:09.190Z,9.37
2023-05-14T02:00:35.865Z,9.45
2023-05-14T02:03:02.585Z,9.39
2023-05-14T02:05:29.271Z,9.33
2023-05-14T02:07:56.061Z,9.25
2023-05-14T02:10:23.016Z,9.08
2023-05-14T02:12:49.976Z,8.96
2023-05-14T02:15:16.724Z,8.88
2023-05-14T02:17:43.418Z,8.87
2023-05-14T02:20:10.601Z,8.82
2023-05-14T02:22:37.607Z,8.76
2023-05-14T02:25:04.449Z,8.70
2023-05-14T02:27:31.598Z,8.67
2023-05-14T02:30:00.807Z,8.61
2023-05-14T02:32:28.049Z,8.59
2023-05-14T02:34:54.783Z,8.59
2023-05-14T02:37:21.430Z,8.60
2023-05-14T02:39:49.091Z,8.52
2023-05-14T02:42:15.738Z,8.43
2023-05-14T02:44:42.588Z,8.38
2023-05-14T02:47:09.370Z,8.36
2023-05-14T02:49:36.149Z,8.33
2023-05-14T02:52:03.464Z,8.33
2023-05-14T02:54:30.096Z,8.39
2023-05-14T02:56:58.044Z,8.52
2023-05-14T02:59:24.924Z,8.48
2023-05-14T03:01:52.109Z,8.43
2023-05-14T03:04:21.320Z,8.41
2023-05-14T03:06:47.980Z,8.39
2023-05-14T03:09:14.595Z,8.40
2023-05-14T03:11:41.274Z,8.26
2023-05-14T03:14:07.890Z,8.33
2023-05-14T03:16:34.573Z,8.33
2023-05-14T03:19:01.299Z,8.36
2023-05-14T03:21:27.945Z,8.37
2023-05-14T03:23:54.607Z,8.36
2023-05-14T03:26:21.679Z,8.35
2023-05-14T03:28:48.526Z,8.30
2023-05-14T03:31:15.232Z,8.24
2023-05-14T03:33:41.968Z,8.24
2023-05-14T03:36:08.717Z,8.32
2023-05-14T03:38:35.327Z,8.35
2023-05-14T03:41:01.971Z,8.30
2023-05-14T03:43:28.538Z,8.29
2023-05-14T03:45:55.142Z,8.32
2023-05-14T03:48:21.819Z,8.42
2023-05-14T03:50:48.736Z,8.58
2023-05-14T03:53:16.835Z,8.50
2023-05-14T03:55:43.599Z,8.48
2023-05-14T03:58:14.521Z,8.47
2023-05-14T04:00:44.454Z,8.52
2023-05-14T04:03:11.787Z,8.63
2023-05-14T04:05:38.584Z,8.66
2023-05-14T04:08:06.070Z,8.71
2023-05-14T04:10:32.845Z,8.76
2023-05-14T04:12:59.537Z,8.93
2023-05-14T04:15:26.266Z,8.92
2023-05-14T04:17:52.953Z,8.97
2023-05-14T04:20:19.660Z,9.11
2023-05-14T04:22:46.517Z,9.09
2023-05-14T04:25:13.198Z,9.10
2023-05-14T04:27:40.169Z,9.23
2023-05-14T04:30:08.447Z,9.34
2023-05-14T04:32:35.484Z,9.46
2023-05-14T04:35:02.545Z,9.52
2023-05-14T04:37:29.195Z,9.61
2023-05-14T04:39:55.799Z,9.67
2023-05-14T04:42:22.660Z,9.68
2023-05-14T04:44:49.374Z,9.72
2023-05-14T04:47:16.173Z,9.70
2023-05-14T04:49:43.332Z,9.57
2023-05-14T04:52:10.042Z,9.53
2023-05-14T04:54:36.763Z,9.61
2023-05-14T04:57:03.478Z,9.75
2023-05-14T04:59:30.617Z,10.10
2023-05-14T05:01:57.412Z,10.34
2023-05-14T05:04:24.160Z,10.36
2023-05-14T05:06:50.908Z,10.32
2023-05-14T05:09:18.230Z,10.36
2023-05-14T05:11:44.871Z,10.36
2023-05-14T05:14:11.517Z,10.48
2023-05-14T05:16:38.160Z,10.58
2023-05-14T05:19:04.906Z,10.63
2023-05-14T05:21:31.666Z,10.85
2023-05-14T05:23:58.301Z,11.03
2023-05-14T05:26:26.820Z,11.19
2023-05-14T05:28:53.556Z,11.34
2023-05-14T05:31:20.498Z,11.93
2023-05-14T05:33:47.175Z,12.77
2023-05-14T05:36:13.851Z,13.60
2023-05-14T05:38:40.506Z,14.20
2023-05-14T05:41:07.546Z,14.15
2023-05-14T05:43:34.221Z,13.82
2023-05-14T05:46:01.057Z,13.78
2023-05-14T05:48:28.218Z,13.79
2023-05-14T05:50:54.862Z,13.73
2023-05-14T05:53:21.566Z,13.57
2023-05-14T05:55:48.219Z,14.03
2023-05-14T05:58:17.162Z,14.45
2023-05-14T06:00:44.283Z,14.80
2023-05-14T06:03:11.477Z,15.72
2023-05-14T06:05:38.297Z,17.08
2023-05-14T06:08:05.242Z,18.11
2023-05-14T06:10:32.234Z,18.61
2023-05-14T06:12:59.012Z,18.82
2023-05-14T06:15:25.685Z,18.91
2023-05-14T06:17:52.449Z,19.13
2023-05-14T06:20:19.237Z,19.33
2023-05-14T06:22:45.948Z,19.47
2023-05-14T06:25:12.606Z,19.88
2023-05-14T06:27:39.217Z,20.36
2023-05-14T06:30:07.033Z,20.56
2023-05-14T06:32:33.705Z,19.86
2023-05-14T06:35:00.351Z,19.49
2023-05-14T06:37:27.010Z,19.10
2023-05-14T06:39:54.370Z,18.62
2023-05-14T06:42:21.825Z,18.29
2023-05-14T06:44:48.447Z,17.95
2023-05-14T06:47:15.051Z,17.71
2023-05-14T06:49:41.640Z,17.66
2023-05-14T06:52:08.272Z,17.44
2023-05-14T06:54:34.913Z,17.40
2023-05-14T06:57:01.606Z,17.31
2023-05-14T06:59:28.230Z,17.33
2023-05-14T07:01:54.869Z,17.53
2023-05-14T07:04:21.557Z,17.42
2023-05-14T07:06:48.228Z,17.63
2023-05-14T07:09:15.800Z,17.93
2023-05-14T07:11:42.402Z,18.14
2023-05-14T07:14:08.996Z,18.69
2023-05-14T07:16:36.025Z,19.06
2023-05-14T07:19:02.688Z,19.31
2023-05-14T07:21:29.349Z,19.46
2023-05-14T07:23:56.152Z,19.60
2023-05-14T07:26:24.592Z,19.44
2023-05-14T07:28:51.248Z,19.84
2023-05-14T07:31:17.900Z,20.17
2023-05-14T07:33:44.631Z,20.40
2023-05-14T07:36:11.234Z,20.35
2023-05-14T07:38:37.892Z,20.43
2023-05-14T07:41:04.755Z,20.36
2023-05-14T07:43:31.684Z,20.40
2023-05-14T07:45:58.438Z,20.53
2023-05-14T07:48:25.149Z,20.56
2023-05-14T07:50:51.928Z,21.24
2023-05-14T07:53:18.554Z,21.48
2023-05-14T07:55:45.719Z,21.46
2023-05-14T07:58:12.337Z,21.24
2023-05-14T08:00:39.161Z,20.69
2023-05-14T08:03:05.938Z,20.69
2023-05-14T08:05:33.044Z,20.49
2023-05-14T08:10:27.016Z,20.04
2023-05-14T08:12:54.002Z,20.01
2023-05-14T08:15:21.045Z,19.74
2023-05-14T08:17:47.752Z,20.09
2023-05-14T08:20:14.543Z,20.09
2023-05-14T08:22:41.381Z,19.88
2023-05-14T08:25:08.166Z,20.09
2023-05-14T08:27:34.827Z,20.08
2023-05-14T08:30:01.539Z,20.33
2023-05-14T08:32:28.190Z,20.38
2023-05-14T08:34:54.862Z,20.41
2023-05-14T08:37:21.526Z,19.90
2023-05-14T08:39:48.152Z,20.11
2023-05-14T08:42:15.769Z,19.93
2023-05-14T08:44:51.878Z,19.99
2023-05-14T08:47:19.140Z,20.12
2023-05-14T09:02:31.385Z,20.47
2023-05-14T09:05:00.430Z,20.27
2023-05-14T09:07:27.648Z,20.50
2023-05-14T09:09:54.666Z,20.41
2023-05-14T09:12:21.875Z,20.42
2023-05-14T09:14:49.740Z,20.59
2023-05-14T09:17:16.978Z,20.69
2023-05-14T09:19:44.320Z,20.58
2023-05-14T09:22:15.773Z,20.46
2023-05-14T09:24:42.464Z,20.35
2023-05-14T09:27:10.556Z,20.56
2023-05-14T09:29:37.246Z,20.59
2023-05-14T09:32:10.238Z,20.69
2023-05-14T09:34:39.776Z,20.70
2023-05-14T09:37:10.040Z,20.67
2023-05-14T09:39:37.428Z,20.46
2023-05-14T09:42:04.751Z,20.80
2023-05-14T09:44:40.349Z,21.11
2023-05-14T09:47:16.368Z,21.33
2023-05-14T09:49:45.014Z,21.13
2023-05-14T09:52:13.745Z,21.51
2023-05-14T09:54:41.491Z,21.54
2023-05-14T09:57:08.281Z,21.84
2023-05-14T09:59:35.005Z,21.06
2023-05-14T10:02:02.208Z,21.00
2023-05-14T10:04:29.145Z,21.59
2023-05-14T10:06:56.202Z,22.05
2023-05-14T10:09:28.001Z,22.17
2023-05-14T10:12:00.246Z,21.53
2023-05-14T10:26:39.492Z,22.95
2023-05-14T10:29:06.793Z,23.30
2023-05-14T10:31:49.930Z,23.33
2023-05-14T10:34:41.276Z,22.62
2023-05-14T10:37:10.585Z,22.95
2023-05-14T10:40:02.197Z,22.67
2023-05-14T10:42:40.627Z,22.76
2023-05-14T10:45:08.846Z,22.24
2023-05-14T10:47:40.596Z,22.33
2023-05-14T10:50:09.653Z,22.57
2023-05-14T10:52:36.847Z,22.91
2023-05-14T10:55:10.800Z,22.93
2023-05-14T10:57:39.107Z,23.14
2023-05-14T11:00:10.793Z,23.31
2023-05-14T11:02:44.948Z,23.32
2023-05-14T11:05:15.485Z,23.66
2023-05-14T11:07:49.675Z,23.77
2023-05-14T11:10:26.133Z,24.02
2023-05-14T11:13:06.492Z,24.21
2023-05-14T11:15:36.889Z,24.54
2023-05-14T11:18:04.507Z,24.08
2023-05-14T11:20:32.869Z,24.58
2023-05-14T11:23:00.634Z,24.47
2023-05-14T11:25:27.392Z,23.96
2023-05-14T11:27:58.410Z,23.75
2023-05-14T11:30:25.280Z,23.03
2023-05-14T11:32:52.533Z,23.03
2023-05-14T11:35:19.156Z,22.94
2023-05-14T11:37:55.318Z,22.62
2023-05-14T11:40:22.221Z,22.39
2023-05-14T11:42:51.608Z,22.16
2023-05-14T11:45:26.438Z,22.03
2023-05-14T11:47:56.481Z,21.58
2023-05-14T11:50:41.631Z,21.34
2023-05-14T11:53:12.565Z,21.12
2023-05-14T11:59:46.732Z,20.87
2023-05-14T12:02:16.068Z,20.60
2023-05-14T12:04:43.634Z,20.78
2023-05-14T12:07:15.670Z,20.68
2023-05-14T12:12:38.417Z,20.24
2023-05-14T12:15:15.263Z,20.31
2023-05-14T12:17:42.193Z,20.26
2023-05-14T12:23:47.100Z,20.49
2023-05-14T12:26:13.890Z,20.58
2023-05-14T12:28:43.736Z,20.67
2023-05-14T12:35:01.279Z,20.94
2023-05-14T12:37:30.070Z,21.04
2023-05-14T12:39:58.225Z,21.12
2023-05-14T12:42:32.835Z,21.19
2023-05-14T12:45:03.827Z,21.21
2023-05-14T14:08:23.931Z,21.51
2023-05-14T14:10:51.715Z,21.80
2023-05-14T14:13:18.363Z,21.85
2023-05-14T14:15:45.079Z,22.02
2023-05-14T14:18:11.774Z,22.04
2023-05-14T14:20:38.485Z,21.70
2023-05-14T14:23:05.095Z,21.85
2023-05-14T14:25:31.775Z,21.67
2023-05-14T14:27:58.464Z,21.31
2023-05-14T14:30:25.175Z,21.19
2023-05-14T14:32:53.583Z,21.19
2023-05-14T14:35:23.694Z,21.03
2023-05-14T14:37:53.312Z,20.88
2023-05-14T14:40:20.000Z,20.64
2023-05-14T14:42:46.728Z,20.28
2023-05-14T14:45:13.907Z,20.17
2023-05-14T14:47:47.002Z,20.28
2023-05-14T14:50:27.729Z,20.17
2023-05-14T14:52:59.957Z,20.15
2023-05-14T14:55:42.493Z,20.29
2023-05-14T14:58:09.285Z,20.32
2023-05-14T15:00:35.960Z,20.50
2023-05-14T15:03:02.653Z,20.51
2023-05-14T15:05:29.296Z,20.54
2023-05-14T15:07:55.996Z,20.65
2023-05-14T15:10:22.667Z,20.69
2023-05-14T15:13:33.482Z,20.90
2023-05-14T15:42:27.399Z,20.49
2023-05-14T15:44:55.019Z,20.24
2023-05-14T15:47:21.642Z,20.20
2023-05-14T15:49:48.235Z,20.15
2023-05-14T15:52:14.872Z,20.14
2023-05-14T15:54:41.489Z,20.15
2023-05-14T15:57:08.144Z,20.31
2023-05-14T15:59:34.773Z,20.38
2023-05-14T16:02:01.717Z,20.41
2023-05-14T16:04:28.380Z,20.39
2023-05-14T16:06:55.133Z,20.50
2023-05-14T16:09:21.725Z,20.45
2023-05-14T16:11:51.186Z,20.43
2023-05-14T16:14:18.479Z,20.57
2023-05-14T16:16:45.240Z,20.66
2023-05-14T16:19:12.035Z,20.72
2023-05-14T16:21:38.783Z,20.73
2023-05-14T16:24:06.265Z,20.78
2023-05-14T16:26:33.065Z,20.46
2023-05-14T16:28:59.763Z,20.84
2023-05-14T16:31:26.485Z,20.91
2023-05-14T16:33:53.250Z,20.88
2023-05-14T16:36:20.092Z,20.93
2023-05-14T16:39:06.265Z,20.90
2023-05-14T16:41:35.022Z,20.75
2023-05-14T16:44:01.720Z,20.62
2023-05-14T16:46:29.237Z,20.67
2023-05-14T16:48:56.575Z,20.70
2023-05-14T16:51:23.282Z,20.61
2023-05-14T16:53:50.172Z,20.66
2023-05-14T16:56:17.225Z,20.42
2023-05-14T16:58:43.821Z,20.32
2023-05-14T17:01:10.550Z,20.29
2023-05-14T17:03:37.221Z,20.32
2023-05-14T17:06:04.686Z,20.28
2023-05-14T17:08:33.557Z,20.25
2023-05-14T17:11:00.363Z,20.19
2023-05-14T17:13:26.972Z,19.89
2023-05-14T17:15:53.610Z,19.90
2023-05-14T17:18:20.475Z,19.81
2023-05-14T17:20:47.247Z,19.75
2023-05-14T17:23:13.877Z,19.59
2023-05-14T17:25:40.520Z,19.56
2023-05-14T17:28:07.155Z,19.45
2023-05-14T17:30:33.852Z,19.35
2023-05-14T17:33:00.660Z,19.19
2023-05-14T17:35:27.570Z,19.13
2023-05-14T17:37:54.240Z,19.08
2023-05-14T17:40:20.916Z,19.00
2023-05-14T17:42:47.520Z,19.03
2023-05-14T17:45:15.432Z,18.77
2023-05-14T17:47:42.311Z,18.74
2023-05-14T17:50:09.129Z,18.66
2023-05-14T17:52:35.984Z,18.52
2023-05-14T17:55:02.646Z,18.51
2023-05-14T17:57:29.260Z,18.44
2023-05-14T17:59:55.897Z,18.49
2023-05-14T18:02:22.510Z,18.39
2023-05-14T18:04:49.127Z,18.43
2023-05-14T18:07:16.404Z,18.16
2023-05-14T18:09:43.043Z,18.15
2023-05-14T18:12:10.012Z,18.09
2023-05-14T18:14:36.863Z,18.00
2023-05-14T18:17:03.828Z,17.89
2023-05-14T18:19:30.473Z,17.95
2023-05-14T18:21:57.161Z,17.87
2023-05-14T18:24:23.858Z,17.76
2023-05-14T18:26:50.552Z,17.80
2023-05-14T18:29:17.178Z,17.78
2023-05-14T18:31:43.893Z,17.76
2023-05-14T18:34:10.707Z,17.61
2023-05-14T18:36:37.679Z,17.61
2023-05-14T18:39:04.998Z,17.48
2023-05-14T18:41:31.639Z,17.40
2023-05-14T18:43:58.262Z,17.38
2023-05-14T18:46:25.226Z,17.29
2023-05-14T18:48:51.927Z,17.16
2023-05-14T18:51:18.628Z,17.13
2023-05-14T18:53:45.253Z,17.19
2023-05-14T18:56:11.899Z,17.06
2023-05-14T18:58:38.562Z,17.05
2023-05-14T19:01:05.331Z,16.97
2023-05-14T19:03:32.047Z,16.87
2023-05-14T19:05:58.760Z,16.74
2023-05-14T19:08:25.478Z,16.82
2023-05-14T19:10:52.938Z,16.74
2023-05-14T19:13:19.695Z,16.83
2023-05-14T19:15:46.358Z,16.80
2023-05-14T19:18:13.898Z,16.67
2023-05-14T19:20:40.543Z,16.64
2023-05-14T19:23:07.293Z,16.62
2023-05-14T19:25:34.088Z,16.50
2023-05-14T19:28:02.163Z,16.46
2023-05-14T19:30:28.833Z,16.46
2023-05-14T19:32:55.580Z,16.49
2023-05-14T19:35:22.660Z,16.52
2023-05-14T19:37:49.492Z,16.43
2023-05-14T19:40:16.205Z,16.39
2023-05-14T19:42:42.869Z,16.32
2023-05-14T19:45:10.209Z,16.38
2023-05-14T19:47:38.909Z,16.25
2023-05-14T19:50:06.126Z,16.15
2023-05-14T19:52:32.857Z,16.12
2023-05-14T19:54:59.457Z,16.07
2023-05-14T19:57:26.794Z,15.94
2023-05-14T19:59:53.463Z,15.93
2023-05-14T20:02:21.573Z,15.96
2023-05-14T20:04:48.254Z,15.92
2023-05-14T20:07:15.742Z,15.86
2023-05-14T20:09:43.234Z,15.95
2023-05-14T20:12:09.957Z,15.89
2023-05-14T20:14:36.690Z,15.84
2023-05-14T20:17:03.500Z,15.71
2023-05-14T20:19:30.323Z,15.64
2023-05-14T20:21:56.936Z,15.58
2023-05-14T20:24:23.640Z,15.61
2023-05-14T20:26:50.248Z,15.55
2023-05-14T20:29:16.895Z,15.65
2023-05-14T20:31:43.535Z,15.55
2023-05-14T20:34:10.184Z,15.45
2023-05-14T20:36:37.424Z,15.37
2023-05-14T20:39:06.142Z,15.39
2023-05-14T20:41:32.850Z,15.38
2023-05-14T20:43:59.546Z,15.32
2023-05-14T20:46:26.252Z,15.28
2023-05-14T20:48:57.010Z,15.22
2023-05-14T20:51:23.635Z,15.21
2023-05-14T20:53:50.230Z,15.16
2023-05-14T20:56:16.865Z,15.21
2023-05-14T20:58:43.581Z,15.20
2023-05-14T21:01:10.383Z,15.18
2023-05-14T21:03:37.235Z,15.14
2023-05-14T21:06:04.146Z,15.16
2023-05-14T21:08:32.897Z,15.13
2023-05-14T21:10:59.599Z,15.12
2023-05-14T21:13:26.284Z,15.07
2023-05-14T21:15:52.940Z,14.93
2023-05-14T21:18:19.547Z,14.84
2023-05-14T21:20:46.224Z,14.85
2023-05-14T21:23:12.881Z,14.79
2023-05-14T21:25:39.515Z,14.81
2023-05-14T21:28:06.127Z,14.72
2023-05-14T21:30:32.837Z,14.74
2023-05-14T21:32:59.502Z,14.75
2023-05-14T21:35:26.299Z,14.70
2023-05-14T21:37:53.314Z,14.71
2023-05-14T21:40:19.934Z,14.61
2023-05-14T21:42:46.606Z,14.48
2023-05-14T21:45:13.349Z,14.42
2023-05-14T21:47:40.069Z,14.25
2023-05-14T21:50:07.286Z,14.14
2023-05-14T21:52:33.928Z,14.15
2023-05-14T21:55:00.654Z,14.11
2023-05-14T21:57:28.390Z,14.07
2023-05-14T21:59:55.565Z,13.98
2023-05-14T22:02:22.362Z,13.99
2023-05-14T22:04:49.031Z,13.98
2023-05-14T22:07:15.882Z,13.98
2023-05-14T22:09:42.525Z,13.99
2023-05-14T22:12:09.254Z,13.92
2023-05-14T22:14:35.866Z,13.88
2023-05-14T22:17:02.577Z,13.81
2023-05-14T22:19:29.184Z,13.83
2023-05-14T22:21:56.046Z,13.82
2023-05-14T22:24:22.736Z,13.82
2023-05-14T22:26:49.331Z,13.75
2023-05-14T22:29:15.981Z,13.71
2023-05-14T22:31:43.026Z,13.66
2023-05-14T22:34:09.715Z,13.61
2023-05-14T22:36:36.441Z,13.52
2023-05-14T22:39:03.070Z,13.41
2023-05-14T22:41:29.787Z,13.30
2023-05-14T22:43:56.422Z,13.19
2023-05-14T22:46:23.072Z,13.18
2023-05-14T22:48:49.736Z,13.27
2023-05-14T22:51:16.675Z,13.31
2023-05-14T22:53:43.337Z,13.27
2023-05-14T22:56:09.962Z,13.25
2023-05-14T22:58:36.593Z,13.22
2023-05-14T23:01:03.589Z,13.15
2023-05-14T23:03:30.352Z,13.12
2023-05-14T23:05:56.984Z,13.08
2023-05-14T23:08:23.632Z,13.02
2023-05-14T23:10:50.289Z,13.04
2023-05-14T23:13:17.029Z,13.01
2023-05-14T23:15:44.097Z,12.98
2023-05-14T23:18:10.873Z,12.89
2023-05-14T23:20:37.584Z,12.77
2023-05-14T23:23:04.263Z,12.73
2023-05-14T23:25:32.177Z,12.71
2023-05-14T23:27:58.762Z,12.69
2023-05-14T23:30:25.466Z,12.60
2023-05-14T23:32:52.169Z,12.52
2023-05-14T23:35:18.849Z,12.39
2023-05-14T23:37:47.397Z,12.30
2023-05-14T23:40:15.703Z,12.26
2023-05-14T23:42:42.774Z,12.20
2023-05-14T23:45:09.814Z,12.18
2023-05-14T23:47:36.504Z,12.12
2023-05-14T23:50:03.453Z,12.06
2023-05-14T23:52:30.088Z,12.04
2023-05-14T23:54:56.695Z,12.01
2023-05-14T23:57:23.346Z,12.01
2023-05-14T23:59:49.964Z,11.99
